sensor_id;sensor_type;location;lat;lon;timestamp;P1;durP1;ratioP1;P2;durP2;ratioP2
21843;SDS011;11084;52.482;9.108;2022-12-07T00:00:52;25.90;;;9.63;;
21843;SDS011;11084;52.482;9.108;2022-12-07T00:03:19;23.73;;;9.97;;
21843;SDS011;11084;52.482;9.108;2022-12-07T00:05:45;19.13;;;9.13;;
21843;SDS011;11084;52.482;9.108;2022-12-07T00:08:11;20.13;;;9.87;;
21843;SDS011;11084;52.482;9.108;2022-12-07T00:10:37;21.33;;;9.80;;
21843;SDS011;11084;52.482;9.108;2022-12-07T00:13:03;18.70;;;8.93;;
21843;SDS011;11084;52.482;9.108;2022-12-07T00:15:29;20.17;;;11.17;;
21843;SDS011;11084;52.482;9.108;2022-12-07T00:17:55;26.63;;;11.03;;
21843;SDS011;11084;52.482;9.108;2022-12-07T00:20:21;28.50;;;12.80;;
21843;SDS011;11084;52.482;9.108;2022-12-07T00:22:47;21.87;;;10.53;;
21843;SDS011;11084;52.482;9.108;2022-12-07T00:25:15;26.33;;;11.77;;
21843;SDS011;11084;52.482;9.108;2022-12-07T00:27:41;33.70;;;12.33;;
21843;SDS011;11084;52.482;9.108;2022-12-07T00:30:07;33.77;;;10.70;;
21843;SDS011;11084;52.482;9.108;2022-12-07T00:32:34;25.77;;;9.97;;
21843;SDS011;11084;52.482;9.108;2022-12-07T00:35:00;29.27;;;11.50;;
21843;SDS011;11084;52.482;9.108;2022-12-07T00:37:26;15.87;;;9.50;;
21843;SDS011;11084;52.482;9.108;2022-12-07T00:39:52;18.90;;;10.47;;
21843;SDS011;11084;52.482;9.108;2022-12-07T00:42:18;21.37;;;9.43;;
21843;SDS011;11084;52.482;9.108;2022-12-07T00:44:44;18.90;;;10.50;;
21843;SDS011;11084;52.482;9.108;2022-12-07T00:47:10;20.57;;;10.27;;
21843;SDS011;11084;52.482;9.108;2022-12-07T00:49:36;30.67;;;11.73;;
21843;SDS011;11084;52.482;9.108;2022-12-07T00:52:02;18.50;;;11.03;;
21843;SDS011;11084;52.482;9.108;2022-12-07T00:54:28;21.53;;;9.50;;
21843;SDS011;11084;52.482;9.108;2022-12-07T00:56:54;17.23;;;10.63;;
21843;SDS011;11084;52.482;9.108;2022-12-07T00:59:20;14.70;;;8.13;;
21843;SDS011;11084;52.482;9.108;2022-12-07T01:01:46;15.97;;;8.37;;
21843;SDS011;11084;52.482;9.108;2022-12-07T01:04:12;19.07;;;8.47;;
21843;SDS011;11084;52.482;9.108;2022-12-07T01:06:38;17.17;;;8.60;;
21843;SDS011;11084;52.482;9.108;2022-12-07T01:09:04;18.17;;;8.27;;
21843;SDS011;11084;52.482;9.108;2022-12-07T01:11:31;25.93;;;9.03;;
21843;SDS011;11084;52.482;9.108;2022-12-07T01:13:58;16.83;;;9.23;;
21843;SDS011;11084;52.482;9.108;2022-12-07T01:16:27;22.67;;;9.47;;
21843;SDS011;11084;52.482;9.108;2022-12-07T01:18:57;17.40;;;8.97;;
21843;SDS011;11084;52.482;9.108;2022-12-07T01:21:25;21.67;;;9.07;;
21843;SDS011;11084;52.482;9.108;2022-12-07T01:24:01;16.40;;;9.00;;
21843;SDS011;11084;52.482;9.108;2022-12-07T01:26:31;19.97;;;9.80;;
21843;SDS011;11084;52.482;9.108;2022-12-07T01:28:58;17.80;;;8.87;;
21843;SDS011;11084;52.482;9.108;2022-12-07T01:31:27;20.40;;;9.00;;
21843;SDS011;11084;52.482;9.108;2022-12-07T01:33:58;18.97;;;9.43;;
21843;SDS011;11084;52.482;9.108;2022-12-07T01:36:27;16.77;;;8.50;;
21843;SDS011;11084;52.482;9.108;2022-12-07T01:38:58;13.97;;;8.13;;
21843;SDS011;11084;52.482;9.108;2022-12-07T01:41:31;20.53;;;6.87;;
21843;SDS011;11084;52.482;9.108;2022-12-07T01:46:34;13.20;;;7.27;;
21843;SDS011;11084;52.482;9.108;2022-12-07T01:49:00;11.00;;;6.53;;
21843;SDS011;11084;52.482;9.108;2022-12-07T01:51:28;14.23;;;7.00;;
21843;SDS011;11084;52.482;9.108;2022-12-07T01:53:55;11.37;;;7.37;;
21843;SDS011;11084;52.482;9.108;2022-12-07T01:56:23;12.67;;;7.17;;
21843;SDS011;11084;52.482;9.108;2022-12-07T01:58:51;18.80;;;7.13;;
21843;SDS011;11084;52.482;9.108;2022-12-07T02:01:19;13.57;;;5.70;;
21843;SDS011;11084;52.482;9.108;2022-12-07T02:03:45;15.80;;;6.50;;
21843;SDS011;11084;52.482;9.108;2022-12-07T02:06:13;14.07;;;6.87;;
21843;SDS011;11084;52.482;9.108;2022-12-07T02:08:44;21.40;;;6.67;;
21843;SDS011;11084;52.482;9.108;2022-12-07T02:11:12;10.03;;;6.37;;
21843;SDS011;11084;52.482;9.108;2022-12-07T02:13:39;9.43;;;6.10;;
21843;SDS011;11084;52.482;9.108;2022-12-07T02:24:34;15.43;;;6.87;;
21843;SDS011;11084;52.482;9.108;2022-12-07T02:27:48;13.30;;;7.13;;
21843;SDS011;11084;52.482;9.108;2022-12-07T02:30:24;9.83;;;5.30;;
21843;SDS011;11084;52.482;9.108;2022-12-07T02:36:06;14.13;;;5.67;;
21843;SDS011;11084;52.482;9.108;2022-12-07T02:38:55;13.47;;;6.53;;
21843;SDS011;11084;52.482;9.108;2022-12-07T02:41:29;11.30;;;5.60;;
21843;SDS011;11084;52.482;9.108;2022-12-07T02:44:06;10.43;;;5.57;;
21843;SDS011;11084;52.482;9.108;2022-12-07T02:49:38;9.60;;;5.63;;
21843;SDS011;11084;52.482;9.108;2022-12-07T02:52:05;12.33;;;5.80;;
21843;SDS011;11084;52.482;9.108;2022-12-07T02:54:31;12.40;;;5.87;;
21843;SDS011;11084;52.482;9.108;2022-12-07T03:05:50;14.93;;;5.23;;
21843;SDS011;11084;52.482;9.108;2022-12-07T03:11:47;9.47;;;4.77;;
21843;SDS011;11084;52.482;9.108;2022-12-07T03:14:25;9.03;;;4.40;;
21843;SDS011;11084;52.482;9.108;2022-12-07T03:17:00;8.63;;;4.67;;
21843;SDS011;11084;52.482;9.108;2022-12-07T03:19:37;7.50;;;4.63;;
21843;SDS011;11084;52.482;9.108;2022-12-07T03:22:05;8.73;;;4.97;;
21843;SDS011;11084;52.482;9.108;2022-12-07T03:24:37;8.27;;;4.93;;
21843;SDS011;11084;52.482;9.108;2022-12-07T03:27:08;9.20;;;3.93;;
21843;SDS011;11084;52.482;9.108;2022-12-07T03:29:56;10.00;;;4.53;;
21843;SDS011;11084;52.482;9.108;2022-12-07T03:32:32;8.40;;;4.67;;
21843;SDS011;11084;52.482;9.108;2022-12-07T03:35:17;21.57;;;4.83;;
21843;SDS011;11084;52.482;9.108;2022-12-07T03:37:52;6.47;;;3.90;;
21843;SDS011;11084;52.482;9.108;2022-12-07T03:40:42;9.33;;;4.77;;
21843;SDS011;11084;52.482;9.108;2022-12-07T03:43:17;9.53;;;3.93;;
21843;SDS011;11084;52.482;9.108;2022-12-07T03:48:37;9.87;;;4.13;;
21843;SDS011;11084;52.482;9.108;2022-12-07T03:54:19;14.33;;;4.53;;
21843;SDS011;11084;52.482;9.108;2022-12-07T03:57:03;18.03;;;4.77;;
21843;SDS011;11084;52.482;9.108;2022-12-07T03:59:30;11.33;;;5.20;;
21843;SDS011;11084;52.482;9.108;2022-12-07T04:02:01;7.97;;;4.50;;
21843;SDS011;11084;52.482;9.108;2022-12-07T04:04:30;9.00;;;5.20;;
21843;SDS011;11084;52.482;9.108;2022-12-07T04:06:56;10.07;;;4.93;;
21843;SDS011;11084;52.482;9.108;2022-12-07T04:09:22;11.47;;;5.20;;
21843;SDS011;11084;52.482;9.108;2022-12-07T04:11:48;7.17;;;4.33;;
21843;SDS011;11084;52.482;9.108;2022-12-07T04:14:14;9.83;;;4.30;;
21843;SDS011;11084;52.482;9.108;2022-12-07T04:16:53;11.37;;;4.27;;
21843;SDS011;11084;52.482;9.108;2022-12-07T04:19:23;11.23;;;4.53;;
21843;SDS011;11084;52.482;9.108;2022-12-07T04:21:57;12.40;;;4.57;;
21843;SDS011;11084;52.482;9.108;2022-12-07T04:24:25;7.10;;;4.07;;
21843;SDS011;11084;52.482;9.108;2022-12-07T04:26:51;9.47;;;4.73;;
21843;SDS011;11084;52.482;9.108;2022-12-07T04:29:17;13.83;;;5.17;;
21843;SDS011;11084;52.482;9.108;2022-12-07T04:31:44;8.80;;;5.10;;
21843;SDS011;11084;52.482;9.108;2022-12-07T04:34:10;11.10;;;5.20;;
21843;SDS011;11084;52.482;9.108;2022-12-07T04:36:38;9.57;;;4.53;;
21843;SDS011;11084;52.482;9.108;2022-12-07T04:39:05;10.60;;;4.27;;
21843;SDS011;11084;52.482;9.108;2022-12-07T04:41:32;10.43;;;4.33;;
21843;SDS011;11084;52.482;9.108;2022-12-07T04:44:03;8.00;;;4.97;;
21843;SDS011;11084;52.482;9.108;2022-12-07T04:46:32;12.43;;;4.93;;
21843;SDS011;11084;52.482;9.108;2022-12-07T04:48:58;24.40;;;5.23;;
21843;SDS011;11084;52.482;9.108;2022-12-07T04:51:26;10.07;;;4.30;;
21843;SDS011;11084;52.482;9.108;2022-12-07T04:53:54;10.03;;;4.13;;
21843;SDS011;11084;52.482;9.108;2022-12-07T04:56:21;10.00;;;4.40;;
21843;SDS011;11084;52.482;9.108;2022-12-07T04:58:48;9.23;;;4.53;;
21843;SDS011;11084;52.482;9.108;2022-12-07T05:01:16;10.53;;;3.90;;
21843;SDS011;11084;52.482;9.108;2022-12-07T05:03:44;19.07;;;4.60;;
21843;SDS011;11084;52.482;9.108;2022-12-07T05:06:10;7.73;;;3.37;;
21843;SDS011;11084;52.482;9.108;2022-12-07T05:08:37;11.53;;;3.87;;
21843;SDS011;11084;52.482;9.108;2022-12-07T05:11:04;13.70;;;3.87;;
21843;SDS011;11084;52.482;9.108;2022-12-07T05:13:31;12.03;;;3.97;;
21843;SDS011;11084;52.482;9.108;2022-12-07T05:15:58;10.60;;;3.53;;
21843;SDS011;11084;52.482;9.108;2022-12-07T05:18:24;10.33;;;3.50;;
21843;SDS011;11084;52.482;9.108;2022-12-07T05:20:51;8.10;;;3.37;;
21843;SDS011;11084;52.482;9.108;2022-12-07T05:23:17;5.47;;;3.20;;
21843;SDS011;11084;52.482;9.108;2022-12-07T05:25:46;5.27;;;2.80;;
21843;SDS011;11084;52.482;9.108;2022-12-07T05:28:12;9.23;;;2.47;;
21843;SDS011;11084;52.482;9.108;2022-12-07T05:30:38;11.00;;;2.47;;
21843;SDS011;11084;52.482;9.108;2022-12-07T05:33:04;8.33;;;2.70;;
21843;SDS011;11084;52.482;9.108;2022-12-07T05:35:30;6.37;;;2.87;;
21843;SDS011;11084;52.482;9.108;2022-12-07T05:37:56;3.50;;;2.10;;
21843;SDS011;11084;52.482;9.108;2022-12-07T05:40:23;7.03;;;2.17;;
21843;SDS011;11084;52.482;9.108;2022-12-07T05:42:49;5.50;;;2.43;;
21843;SDS011;11084;52.482;9.108;2022-12-07T05:45:16;8.33;;;1.63;;
21843;SDS011;11084;52.482;9.108;2022-12-07T05:47:42;9.77;;;2.40;;
21843;SDS011;11084;52.482;9.108;2022-12-07T05:50:08;5.67;;;2.40;;
21843;SDS011;11084;52.482;9.108;2022-12-07T05:52:34;6.87;;;1.70;;
21843;SDS011;11084;52.482;9.108;2022-12-07T05:55:00;3.17;;;2.00;;
21843;SDS011;11084;52.482;9.108;2022-12-07T05:57:29;3.50;;;2.10;;
21843;SDS011;11084;52.482;9.108;2022-12-07T05:59:55;9.37;;;2.20;;
21843;SDS011;11084;52.482;9.108;2022-12-07T06:02:21;3.07;;;1.77;;
21843;SDS011;11084;52.482;9.108;2022-12-07T06:04:47;4.70;;;1.43;;
21843;SDS011;11084;52.482;9.108;2022-12-07T06:07:14;4.90;;;1.90;;
21843;SDS011;11084;52.482;9.108;2022-12-07T06:09:42;7.90;;;1.90;;
21843;SDS011;11084;52.482;9.108;2022-12-07T06:12:11;4.83;;;2.00;;
21843;SDS011;11084;52.482;9.108;2022-12-07T06:14:57;7.70;;;1.73;;
21843;SDS011;11084;52.482;9.108;2022-12-07T06:17:23;1.83;;;1.50;;
21843;SDS011;11084;52.482;9.108;2022-12-07T06:19:50;4.07;;;1.83;;
21843;SDS011;11084;52.482;9.108;2022-12-07T06:22:16;5.03;;;1.47;;
21843;SDS011;11084;52.482;9.108;2022-12-07T06:24:42;8.97;;;1.70;;
21843;SDS011;11084;52.482;9.108;2022-12-07T06:27:09;4.93;;;1.73;;
21843;SDS011;11084;52.482;9.108;2022-12-07T06:29:35;7.30;;;1.20;;
21843;SDS011;11084;52.482;9.108;2022-12-07T06:32:02;8.47;;;1.50;;
21843;SDS011;11084;52.482;9.108;2022-12-07T06:34:29;8.03;;;1.50;;
21843;SDS011;11084;52.482;9.108;2022-12-07T06:36:56;4.43;;;1.10;;
21843;SDS011;11084;52.482;9.108;2022-12-07T06:39:23;2.67;;;1.00;;
21843;SDS011;11084;52.482;9.108;2022-12-07T06:41:51;5.77;;;1.37;;
21843;SDS011;11084;52.482;9.108;2022-12-07T06:44:19;1.57;;;1.33;;
21843;SDS011;11084;52.482;9.108;2022-12-07T06:46:45;5.30;;;1.10;;
21843;SDS011;11084;52.482;9.108;2022-12-07T06:49:12;1.00;;;0.90;;
21843;SDS011;11084;52.482;9.108;2022-12-07T06:51:38;4.30;;;1.17;;
21843;SDS011;11084;52.482;9.108;2022-12-07T06:54:15;6.77;;;1.10;;
21843;SDS011;11084;52.482;9.108;2022-12-07T06:56:41;1.13;;;0.90;;
21843;SDS011;11084;52.482;9.108;2022-12-07T06:59:08;5.33;;;1.10;;
21843;SDS011;11084;52.482;9.108;2022-12-07T07:01:34;1.43;;;0.90;;
21843;SDS011;11084;52.482;9.108;2022-12-07T07:04:01;4.97;;;0.77;;
21843;SDS011;11084;52.482;9.108;2022-12-07T07:06:27;1.90;;;1.13;;
21843;SDS011;11084;52.482;9.108;2022-12-07T07:08:53;2.20;;;1.00;;
21843;SDS011;11084;52.482;9.108;2022-12-07T07:11:19;3.07;;;1.00;;
21843;SDS011;11084;52.482;9.108;2022-12-07T07:13:45;7.20;;;0.77;;
21843;SDS011;11084;52.482;9.108;2022-12-07T07:16:11;5.33;;;0.97;;
21843;SDS011;11084;52.482;9.108;2022-12-07T07:18:41;0.93;;;0.70;;
21843;SDS011;11084;52.482;9.108;2022-12-07T07:21:07;6.63;;;1.00;;
21843;SDS011;11084;52.482;9.108;2022-12-07T07:23:32;5.17;;;1.30;;
21843;SDS011;11084;52.482;9.108;2022-12-07T07:25:59;4.40;;;1.10;;
21843;SDS011;11084;52.482;9.108;2022-12-07T07:28:25;2.27;;;1.47;;
21843;SDS011;11084;52.482;9.108;2022-12-07T07:30:51;3.57;;;0.90;;
21843;SDS011;11084;52.482;9.108;2022-12-07T07:33:17;4.67;;;0.80;;
21843;SDS011;11084;52.482;9.108;2022-12-07T07:35:43;1.70;;;0.90;;
21843;SDS011;11084;52.482;9.108;2022-12-07T07:38:09;5.97;;;1.40;;
21843;SDS011;11084;52.482;9.108;2022-12-07T07:40:36;3.80;;;0.97;;
21843;SDS011;11084;52.482;9.108;2022-12-07T07:43:03;3.43;;;1.03;;
21843;SDS011;11084;52.482;9.108;2022-12-07T07:45:29;3.97;;;1.13;;
21843;SDS011;11084;52.482;9.108;2022-12-07T07:47:55;4.73;;;0.93;;
21843;SDS011;11084;52.482;9.108;2022-12-07T07:50:21;20.93;;;1.37;;
21843;SDS011;11084;52.482;9.108;2022-12-07T07:52:47;4.10;;;0.87;;
21843;SDS011;11084;52.482;9.108;2022-12-07T07:55:13;2.37;;;0.90;;
21843;SDS011;11084;52.482;9.108;2022-12-07T07:57:40;2.40;;;0.93;;
21843;SDS011;11084;52.482;9.108;2022-12-07T08:00:08;3.90;;;0.70;;
21843;SDS011;11084;52.482;9.108;2022-12-07T08:02:40;5.63;;;0.97;;
21843;SDS011;11084;52.482;9.108;2022-12-07T08:05:11;3.87;;;0.50;;
21843;SDS011;11084;52.482;9.108;2022-12-07T08:07:38;5.60;;;0.70;;
21843;SDS011;11084;52.482;9.108;2022-12-07T08:10:05;3.10;;;0.90;;
21843;SDS011;11084;52.482;9.108;2022-12-07T08:12:35;6.10;;;1.30;;
21843;SDS011;11084;52.482;9.108;2022-12-07T08:15:23;4.90;;;0.90;;
21843;SDS011;11084;52.482;9.108;2022-12-07T08:17:50;1.17;;;0.90;;
21843;SDS011;11084;52.482;9.108;2022-12-07T08:20:16;3.33;;;1.50;;
21843;SDS011;11084;52.482;9.108;2022-12-07T08:22:42;7.23;;;3.23;;
21843;SDS011;11084;52.482;9.108;2022-12-07T08:25:08;2.57;;;1.53;;
21843;SDS011;11084;52.482;9.108;2022-12-07T08:27:34;6.10;;;1.30;;
21843;SDS011;11084;52.482;9.108;2022-12-07T08:30:00;2.63;;;0.90;;
21843;SDS011;11084;52.482;9.108;2022-12-07T08:32:26;5.13;;;1.10;;
21843;SDS011;11084;52.482;9.108;2022-12-07T08:34:52;8.33;;;1.97;;
21843;SDS011;11084;52.482;9.108;2022-12-07T08:37:18;10.57;;;2.40;;
21843;SDS011;11084;52.482;9.108;2022-12-07T08:39:44;2.13;;;1.83;;
21843;SDS011;11084;52.482;9.108;2022-12-07T08:42:10;2.53;;;1.50;;
21843;SDS011;11084;52.482;9.108;2022-12-07T08:44:36;4.80;;;1.20;;
21843;SDS011;11084;52.482;9.108;2022-12-07T08:47:02;7.50;;;1.00;;
21843;SDS011;11084;52.482;9.108;2022-12-07T08:49:31;3.40;;;1.10;;
21843;SDS011;11084;52.482;9.108;2022-12-07T08:52:03;4.73;;;0.87;;
21843;SDS011;11084;52.482;9.108;2022-12-07T08:54:30;0.60;;;0.60;;
21843;SDS011;11084;52.482;9.108;2022-12-07T08:57:00;3.40;;;0.93;;
21843;SDS011;11084;52.482;9.108;2022-12-07T08:59:27;1.23;;;1.00;;
21843;SDS011;11084;52.482;9.108;2022-12-07T09:01:54;14.70;;;1.60;;
21843;SDS011;11084;52.482;9.108;2022-12-07T09:04:20;6.43;;;1.10;;
21843;SDS011;11084;52.482;9.108;2022-12-07T09:06:46;2.63;;;0.80;;
21843;SDS011;11084;52.482;9.108;2022-12-07T09:09:12;9.67;;;1.10;;
21843;SDS011;11084;52.482;9.108;2022-12-07T09:11:39;3.60;;;0.80;;
21843;SDS011;11084;52.482;9.108;2022-12-07T09:14:05;6.00;;;0.90;;
21843;SDS011;11084;52.482;9.108;2022-12-07T09:16:31;3.80;;;0.87;;
21843;SDS011;11084;52.482;9.108;2022-12-07T09:18:57;10.80;;;0.90;;
21843;SDS011;11084;52.482;9.108;2022-12-07T09:21:24;1.03;;;0.80;;
21843;SDS011;11084;52.482;9.108;2022-12-07T09:23:50;2.77;;;1.37;;
21843;SDS011;11084;52.482;9.108;2022-12-07T09:26:16;5.17;;;1.50;;
21843;SDS011;11084;52.482;9.108;2022-12-07T09:28:41;8.10;;;2.60;;
21843;SDS011;11084;52.482;9.108;2022-12-07T09:31:08;7.13;;;3.23;;
21843;SDS011;11084;52.482;9.108;2022-12-07T09:33:33;6.70;;;1.93;;
21843;SDS011;11084;52.482;9.108;2022-12-07T09:35:59;6.87;;;2.20;;
21843;SDS011;11084;52.482;9.108;2022-12-07T09:38:25;6.13;;;2.37;;
21843;SDS011;11084;52.482;9.108;2022-12-07T09:40:52;7.60;;;3.00;;
21843;SDS011;11084;52.482;9.108;2022-12-07T09:43:21;7.70;;;2.07;;
21843;SDS011;11084;52.482;9.108;2022-12-07T09:45:51;5.83;;;1.37;;
21843;SDS011;11084;52.482;9.108;2022-12-07T09:48:34;1.90;;;1.10;;
21843;SDS011;11084;52.482;9.108;2022-12-07T09:51:13;9.73;;;1.40;;
21843;SDS011;11084;52.482;9.108;2022-12-07T09:53:43;1.53;;;1.20;;
21843;SDS011;11084;52.482;9.108;2022-12-07T09:56:13;11.23;;;4.03;;
21843;SDS011;11084;52.482;9.108;2022-12-07T09:58:40;2.77;;;1.53;;
21843;SDS011;11084;52.482;9.108;2022-12-07T10:03:40;8.10;;;1.77;;
21843;SDS011;11084;52.482;9.108;2022-12-07T10:06:17;7.83;;;2.13;;
21843;SDS011;11084;52.482;9.108;2022-12-07T10:08:44;16.23;;;4.80;;
21843;SDS011;11084;52.482;9.108;2022-12-07T10:11:10;29.73;;;8.37;;
21843;SDS011;11084;52.482;9.108;2022-12-07T10:13:38;17.60;;;5.03;;
21843;SDS011;11084;52.482;9.108;2022-12-07T10:19:29;4.63;;;2.03;;
21843;SDS011;11084;52.482;9.108;2022-12-07T10:22:05;3.67;;;1.37;;
21843;SDS011;11084;52.482;9.108;2022-12-07T10:24:40;3.70;;;1.60;;
21843;SDS011;11084;52.482;9.108;2022-12-07T10:29:51;2.83;;;1.60;;
21843;SDS011;11084;52.482;9.108;2022-12-07T10:34:44;3.87;;;1.20;;
21843;SDS011;11084;52.482;9.108;2022-12-07T10:42:25;6.93;;;1.17;;
21843;SDS011;11084;52.482;9.108;2022-12-07T10:53:19;3.30;;;1.10;;
21843;SDS011;11084;52.482;9.108;2022-12-07T11:02:11;2.00;;;0.77;;
21843;SDS011;11084;52.482;9.108;2022-12-07T11:07:55;5.60;;;1.23;;
21843;SDS011;11084;52.482;9.108;2022-12-07T11:19:52;6.00;;;1.57;;
21843;SDS011;11084;52.482;9.108;2022-12-07T11:30:43;4.33;;;1.37;;
21843;SDS011;11084;52.482;9.108;2022-12-07T11:33:22;4.73;;;2.00;;
21843;SDS011;11084;52.482;9.108;2022-12-07T11:41:28;2.83;;;1.53;;
21843;SDS011;11084;52.482;9.108;2022-12-07T11:44:05;9.50;;;1.33;;
21843;SDS011;11084;52.482;9.108;2022-12-07T11:46:54;4.70;;;1.30;;
21843;SDS011;11084;52.482;9.108;2022-12-07T11:55:18;15.70;;;1.70;;
21843;SDS011;11084;52.482;9.108;2022-12-07T11:57:58;5.20;;;1.60;;
21843;SDS011;11084;52.482;9.108;2022-12-07T12:00:44;2.33;;;1.40;;
21843;SDS011;11084;52.482;9.108;2022-12-07T12:03:11;5.43;;;1.10;;
21843;SDS011;11084;52.482;9.108;2022-12-07T12:05:45;7.13;;;1.70;;
21843;SDS011;11084;52.482;9.108;2022-12-07T12:08:16;4.07;;;1.13;;
21843;SDS011;11084;52.482;9.108;2022-12-07T12:11:03;7.67;;;1.43;;
21843;SDS011;11084;52.482;9.108;2022-12-07T12:14:21;16.30;;;1.60;;
21843;SDS011;11084;52.482;9.108;2022-12-07T12:23:12;4.07;;;2.00;;
21843;SDS011;11084;52.482;9.108;2022-12-07T12:25:44;3.53;;;1.30;;
21843;SDS011;11084;52.482;9.108;2022-12-07T12:31:42;5.07;;;1.80;;
21843;SDS011;11084;52.482;9.108;2022-12-07T12:33:58;7.13;;;1.47;;
21843;SDS011;11084;52.482;9.108;2022-12-07T12:39:10;5.30;;;1.60;;
21843;SDS011;11084;52.482;9.108;2022-12-07T12:47:03;2.30;;;0.80;;
21843;SDS011;11084;52.482;9.108;2022-12-07T12:58:48;3.03;;;0.80;;
21843;SDS011;11084;52.482;9.108;2022-12-07T13:04:14;2.50;;;1.03;;
21843;SDS011;11084;52.482;9.108;2022-12-07T13:06:56;4.73;;;1.37;;
21843;SDS011;11084;52.482;9.108;2022-12-07T13:09:29;6.03;;;0.93;;
21843;SDS011;11084;52.482;9.108;2022-12-07T13:12:03;6.17;;;1.77;;
21843;SDS011;11084;52.482;9.108;2022-12-07T13:17:10;9.10;;;1.77;;
21843;SDS011;11084;52.482;9.108;2022-12-07T13:19:57;7.60;;;1.10;;
21843;SDS011;11084;52.482;9.108;2022-12-07T13:27:28;3.43;;;1.97;;
21843;SDS011;11084;52.482;9.108;2022-12-07T13:29:56;13.30;;;4.73;;
21843;SDS011;11084;52.482;9.108;2022-12-07T13:32:26;10.77;;;3.90;;
21843;SDS011;11084;52.482;9.108;2022-12-07T13:34:55;12.07;;;4.20;;
21843;SDS011;11084;52.482;9.108;2022-12-07T13:42:30;32.43;;;7.37;;
21843;SDS011;11084;52.482;9.108;2022-12-07T13:44:59;51.70;;;9.77;;
21843;SDS011;11084;52.482;9.108;2022-12-07T13:51:20;43.50;;;11.63;;
21843;SDS011;11084;52.482;9.108;2022-12-07T13:53:54;25.00;;;4.67;;
21843;SDS011;11084;52.482;9.108;2022-12-07T13:56:32;16.73;;;4.97;;
21843;SDS011;11084;52.482;9.108;2022-12-07T13:59:00;7.57;;;3.47;;
21843;SDS011;11084;52.482;9.108;2022-12-07T14:01:26;14.23;;;4.20;;
21843;SDS011;11084;52.482;9.108;2022-12-07T14:03:59;5.93;;;2.97;;
21843;SDS011;11084;52.482;9.108;2022-12-07T14:06:57;8.10;;;2.80;;
21843;SDS011;11084;52.482;9.108;2022-12-07T14:09:24;7.37;;;1.90;;
21843;SDS011;11084;52.482;9.108;2022-12-07T14:11:52;21.37;;;5.43;;
21843;SDS011;11084;52.482;9.108;2022-12-07T14:14:22;8.07;;;3.23;;
21843;SDS011;11084;52.482;9.108;2022-12-07T14:17:11;2.13;;;1.73;;
21843;SDS011;11084;52.482;9.108;2022-12-07T14:19:45;6.60;;;2.67;;
21843;SDS011;11084;52.482;9.108;2022-12-07T14:25:09;25.27;;;6.77;;
21843;SDS011;11084;52.482;9.108;2022-12-07T14:30:24;36.70;;;10.57;;
21843;SDS011;11084;52.482;9.108;2022-12-07T14:33:02;11.40;;;2.27;;
21843;SDS011;11084;52.482;9.108;2022-12-07T14:35:29;5.77;;;2.00;;
21843;SDS011;11084;52.482;9.108;2022-12-07T14:37:57;1.97;;;1.30;;
21843;SDS011;11084;52.482;9.108;2022-12-07T14:40:25;3.77;;;2.00;;
21843;SDS011;11084;52.482;9.108;2022-12-07T14:43:15;6.03;;;1.83;;
21843;SDS011;11084;52.482;9.108;2022-12-07T14:45:41;5.07;;;2.60;;
21843;SDS011;11084;52.482;9.108;2022-12-07T14:48:10;5.47;;;3.90;;
21843;SDS011;11084;52.482;9.108;2022-12-07T14:50:41;3.70;;;2.43;;
21843;SDS011;11084;52.482;9.108;2022-12-07T14:53:13;5.83;;;2.20;;
21843;SDS011;11084;52.482;9.108;2022-12-07T14:55:44;11.30;;;2.43;;
21843;SDS011;11084;52.482;9.108;2022-12-07T14:58:13;3.07;;;1.40;;
21843;SDS011;11084;52.482;9.108;2022-12-07T15:00:40;4.67;;;2.67;;
21843;SDS011;11084;52.482;9.108;2022-12-07T15:03:07;9.70;;;5.10;;
21843;SDS011;11084;52.482;9.108;2022-12-07T15:05:33;20.77;;;5.97;;
21843;SDS011;11084;52.482;9.108;2022-12-07T15:07:59;8.50;;;4.73;;
21843;SDS011;11084;52.482;9.108;2022-12-07T15:10:27;16.53;;;5.97;;
21843;SDS011;11084;52.482;9.108;2022-12-07T15:12:57;7.53;;;2.60;;
21843;SDS011;11084;52.482;9.108;2022-12-07T15:15:45;5.83;;;1.67;;
21843;SDS011;11084;52.482;9.108;2022-12-07T15:18:12;2.33;;;1.70;;
21843;SDS011;11084;52.482;9.108;2022-12-07T15:20:39;6.97;;;2.33;;
21843;SDS011;11084;52.482;9.108;2022-12-07T15:23:05;6.33;;;1.77;;
21843;SDS011;11084;52.482;9.108;2022-12-07T15:25:31;8.20;;;1.40;;
21843;SDS011;11084;52.482;9.108;2022-12-07T15:27:57;9.07;;;1.50;;
21843;SDS011;11084;52.482;9.108;2022-12-07T15:30:23;9.97;;;2.30;;
21843;SDS011;11084;52.482;9.108;2022-12-07T15:32:50;17.50;;;5.43;;
21843;SDS011;11084;52.482;9.108;2022-12-07T15:35:20;15.93;;;4.63;;
21843;SDS011;11084;52.482;9.108;2022-12-07T15:37:49;21.40;;;4.70;;
21843;SDS011;11084;52.482;9.108;2022-12-07T15:40:15;33.00;;;5.70;;
21843;SDS011;11084;52.482;9.108;2022-12-07T15:42:41;40.33;;;10.07;;
21843;SDS011;11084;52.482;9.108;2022-12-07T15:45:08;26.40;;;7.47;;
21843;SDS011;11084;52.482;9.108;2022-12-07T15:47:35;62.23;;;11.70;;
21843;SDS011;11084;52.482;9.108;2022-12-07T15:50:05;52.67;;;13.03;;
21843;SDS011;11084;52.482;9.108;2022-12-07T15:52:34;59.10;;;10.10;;
21843;SDS011;11084;52.482;9.108;2022-12-07T15:55:01;65.90;;;14.17;;
21843;SDS011;11084;52.482;9.108;2022-12-07T15:57:28;101.10;;;20.37;;
21843;SDS011;11084;52.482;9.108;2022-12-07T15:59:55;127.93;;;28.20;;
21843;SDS011;11084;52.482;9.108;2022-12-07T16:02:22;86.83;;;18.57;;
21843;SDS011;11084;52.482;9.108;2022-12-07T16:04:48;56.77;;;12.47;;
21843;SDS011;11084;52.482;9.108;2022-12-07T16:07:15;100.67;;;20.20;;
21843;SDS011;11084;52.482;9.108;2022-12-07T16:09:43;73.20;;;15.50;;
21843;SDS011;11084;52.482;9.108;2022-12-07T16:12:10;167.43;;;34.57;;
21843;SDS011;11084;52.482;9.108;2022-12-07T16:14:37;127.77;;;24.93;;
21843;SDS011;11084;52.482;9.108;2022-12-07T16:17:04;100.63;;;23.10;;
21843;SDS011;11084;52.482;9.108;2022-12-07T16:19:32;110.53;;;22.90;;
21843;SDS011;11084;52.482;9.108;2022-12-07T16:21:59;65.10;;;11.90;;
21843;SDS011;11084;52.482;9.108;2022-12-07T16:24:25;37.60;;;8.57;;
21843;SDS011;11084;52.482;9.108;2022-12-07T16:26:51;52.17;;;10.67;;
21843;SDS011;11084;52.482;9.108;2022-12-07T16:29:18;75.07;;;14.93;;
21843;SDS011;11084;52.482;9.108;2022-12-07T16:31:47;89.33;;;15.30;;
21843;SDS011;11084;52.482;9.108;2022-12-07T16:34:14;55.27;;;10.60;;
21843;SDS011;11084;52.482;9.108;2022-12-07T16:36:41;120.07;;;19.93;;
21843;SDS011;11084;52.482;9.108;2022-12-07T16:39:08;59.20;;;10.93;;
21843;SDS011;11084;52.482;9.108;2022-12-07T16:41:34;66.77;;;12.77;;
21843;SDS011;11084;52.482;9.108;2022-12-07T16:44:05;67.33;;;12.40;;
21843;SDS011;11084;52.482;9.108;2022-12-07T16:46:33;158.23;;;30.43;;
21843;SDS011;11084;52.482;9.108;2022-12-07T16:49:00;58.53;;;11.47;;
21843;SDS011;11084;52.482;9.108;2022-12-07T16:51:28;86.97;;;19.50;;
21843;SDS011;11084;52.482;9.108;2022-12-07T16:53:54;48.50;;;11.80;;
21843;SDS011;11084;52.482;9.108;2022-12-07T16:56:20;89.03;;;18.80;;
21843;SDS011;11084;52.482;9.108;2022-12-07T16:58:46;84.53;;;18.50;;
21843;SDS011;11084;52.482;9.108;2022-12-07T17:01:18;93.67;;;21.03;;
21843;SDS011;11084;52.482;9.108;2022-12-07T17:03:49;67.20;;;15.97;;
21843;SDS011;11084;52.482;9.108;2022-12-07T17:06:23;48.17;;;10.90;;
21843;SDS011;11084;52.482;9.108;2022-12-07T17:08:59;35.07;;;12.33;;
21843;SDS011;11084;52.482;9.108;2022-12-07T17:11:26;29.10;;;11.33;;
21843;SDS011;11084;52.482;9.108;2022-12-07T17:13:56;29.97;;;9.60;;
21843;SDS011;11084;52.482;9.108;2022-12-07T17:16:41;18.97;;;8.47;;
21843;SDS011;11084;52.482;9.108;2022-12-07T17:19:08;16.13;;;7.00;;
21843;SDS011;11084;52.482;9.108;2022-12-07T17:21:40;16.23;;;6.97;;
21843;SDS011;11084;52.482;9.108;2022-12-07T17:24:07;18.30;;;7.23;;